Time;durP1;ratioP1;P1;durP2;ratioP2;P2;SDS_P1;SDS_P2;PMS_P1;PMS_P2;Temp;Humidity;BMP_temperature;BMP_pressure;BME280_temperature;BME280_humidity;BME280_pressure;Samples;Min_cycle;Max_cycle;Signal;HPM_P1;HPM_P2
2022/05/26 00:00:17;;;;;;;1.83;1.30;;;14.20;99.90;;;;;;4956287;28;20473;-83
2022/05/26 00:02:47;;;;;;;1.60;1.40;;;14.00;99.90;;;;;;4956859;28;20779;-84
2022/05/26 00:05:14;;;;;;;1.90;1.35;;;14.10;99.90;;;;;;4956737;28;20404;-85
2022/05/26 00:07:42;;;;;;;2.90;1.40;;;13.70;99.90;;;;;;4964803;28;20418;-84
2022/05/26 00:10:10;;;;;;;3.50;1.40;;;13.80;99.90;;;;;;4956673;28;20443;-85
2022/05/26 00:12:38;;;;;;;2.70;1.40;;;13.50;99.90;;;;;;4963673;28;20973;-85
2022/05/26 00:15:07;;;;;;;2.70;1.40;;;13.60;99.90;;;;;;4957175;28;20499;-84
2022/05/26 00:17:34;;;;;;;2.05;1.23;;;13.80;99.90;;;;;;4935199;28;20908;-83
2022/05/26 00:20:05;;;;;;;3.15;1.40;;;13.70;99.90;;;;;;4957482;28;20408;-83
2022/05/26 00:22:34;;;;;;;2.08;1.30;;;13.70;99.90;;;;;;4962872;28;20801;-83
2022/05/26 00:25:02;;;;;;;1.70;1.25;;;13.70;99.90;;;;;;4954706;28;20419;-84
2022/05/26 00:27:30;;;;;;;2.42;1.40;;;13.60;99.90;;;;;;4961786;28;20743;-83
2022/05/26 00:29:57;;;;;;;2.40;1.20;;;13.60;99.90;;;;;;4950096;28;20426;-84
2022/05/26 00:32:25;;;;;;;1.90;1.50;;;13.60;99.90;;;;;;4955588;28;20471;-84
2022/05/26 00:34:52;;;;;;;1.75;1.30;;;13.50;99.90;;;;;;4958184;28;20389;-83
2022/05/26 00:37:20;;;;;;;1.87;1.33;;;13.40;99.90;;;;;;4950494;28;20737;-82
2022/05/26 00:39:48;;;;;;;2.22;1.52;;;13.30;99.90;;;;;;4950349;28;20400;-84
2022/05/26 00:42:17;;;;;;;2.00;1.30;;;13.40;99.90;;;;;;4941470;28;20778;-83
2022/05/26 00:44:44;;;;;;;1.92;1.30;;;13.50;99.90;;;;;;4949538;28;20430;-84
2022/05/26 00:47:20;;;;;;;2.65;1.60;;;13.40;99.90;;;;;;4958165;28;20909;-83
2022/05/26 00:50:12;;;;;;;3.00;1.60;;;13.40;99.90;;;;;;4956102;28;20483;-84
2022/05/26 00:53:04;;;;;;;1.93;1.40;;;13.00;99.90;;;;;;4955555;28;20958;-84
2022/05/26 00:55:45;;;;;;;2.00;1.50;;;13.30;99.90;;;;;;4935931;28;20423;-83
2022/05/26 00:58:22;;;;;;;2.57;1.40;;;13.30;99.90;;;;;;4959047;28;20479;-82
2022/05/26 01:00:50;;;;;;;2.10;1.65;;;13.30;99.90;;;;;;4956972;28;20460;-83
2022/05/26 01:03:40;;;;;;;1.98;1.50;;;13.30;99.90;;;;;;4959452;28;20413;-83
2022/05/26 01:06:13;;;;;;;2.30;1.60;;;13.30;99.90;;;;;;4953711;28;20401;-83
2022/05/26 01:08:50;;;;;;;2.30;1.52;;;13.20;99.90;;;;;;4961458;28;20769;-81
2022/05/26 01:11:18;;;;;;;2.20;1.80;;;13.20;99.90;;;;;;4946219;28;20418;-83
2022/05/26 01:14:15;;;;;;;2.60;1.85;;;13.20;99.90;;;;;;4941761;28;20887;-83
2022/05/26 01:16:43;;;;;;;2.90;1.63;;;13.30;99.90;;;;;;4933690;28;20901;-82
2022/05/26 01:19:36;;;;;;;2.17;1.70;;;13.20;99.90;;;;;;4962602;28;20436;-81
2022/05/26 01:22:44;;;;;;;4.50;1.90;;;13.20;99.90;;;;;;4957989;28;20430;-82
2022/05/26 01:25:20;;;;;;;2.42;1.70;;;13.20;99.90;;;;;;4959751;28;20497;-81
2022/05/26 01:28:13;;;;;;;2.75;1.90;;;13.30;99.90;;;;;;4966957;28;20410;-82
2022/05/26 01:31:04;;;;;;;3.50;1.60;;;13.30;99.90;;;;;;4963012;28;20493;-83
2022/05/26 01:34:01;;;;;;;2.40;1.80;;;13.30;99.90;;;;;;4960786;28;20403;-82
2022/05/26 01:36:46;;;;;;;2.53;1.70;;;13.30;99.90;;;;;;4938285;28;20419;-83
2022/05/26 01:39:30;;;;;;;2.50;1.67;;;13.20;99.90;;;;;;4959703;28;20404;-82
2022/05/26 01:42:21;;;;;;;2.20;1.65;;;13.10;99.90;;;;;;4939535;29;20491;-82
2022/05/26 01:45:13;;;;;;;3.23;1.70;;;13.00;99.90;;;;;;4925796;28;20410;-83
2022/05/26 01:47:47;;;;;;;2.78;1.90;;;13.20;99.90;;;;;;4957361;28;20913;-83
2022/05/26 01:50:58;;;;;;;2.83;1.73;;;13.20;99.90;;;;;;4954050;28;20450;-84
2022/05/26 01:53:34;;;;;;;2.93;1.67;;;12.80;99.90;;;;;;4965283;28;20449;-83
2022/05/26 01:56:15;;;;;;;3.20;1.60;;;12.90;99.90;;;;;;4957440;28;20970;-84
2022/05/26 01:58:49;;;;;;;4.75;1.70;;;13.00;99.90;;;;;;4952208;28;20388;-82
2022/05/26 02:01:22;;;;;;;2.63;1.70;;;13.00;99.90;;;;;;4941275;28;20440;-83
2022/05/26 02:03:52;;;;;;;2.97;1.67;;;13.10;99.90;;;;;;4955725;28;20415;-83
2022/05/26 02:06:40;;;;;;;1.98;1.45;;;13.00;99.90;;;;;;4960171;28;20433;-83
2022/05/26 02:09:11;;;;;;;2.20;1.60;;;12.90;99.90;;;;;;5009448;28;20388;-83
2022/05/26 02:11:49;;;;;;;1.65;1.52;;;13.00;99.90;;;;;;4942836;28;20422;-84
2022/05/26 02:14:28;;;;;;;2.10;1.50;;;12.90;99.90;;;;;;4963180;28;20547;-83
2022/05/26 02:17:02;;;;;;;4.40;1.53;;;13.00;99.90;;;;;;4961872;28;20410;-81
2022/05/26 02:19:35;;;;;;;3.10;1.63;;;13.00;99.90;;;;;;4959653;28;20408;-83
2022/05/26 02:22:18;;;;;;;2.70;1.60;;;13.00;99.90;;;;;;4945943;28;20456;-84
2022/05/26 02:25:08;;;;;;;2.80;1.70;;;12.90;99.90;;;;;;4966057;28;20414;-83
2022/05/26 02:27:37;;;;;;;1.98;1.60;;;12.90;99.90;;;;;;4951668;29;20655;-83
2022/05/26 02:30:07;;;;;;;1.88;1.40;;;12.90;99.90;;;;;;4957799;28;20962;-83
2022/05/26 02:32:41;;;;;;;2.25;1.30;;;12.90;99.90;;;;;;4955007;28;20418;-81
2022/05/26 02:35:21;;;;;;;2.55;1.40;;;12.90;99.90;;;;;;4944293;28;20782;-84
2022/05/26 03:32:14;;;;;;;1.50;1.30;;;12.50;99.90;;;;;;5039192;28;20369;-83
2022/05/26 03:43:01;;;;;;;1.48;1.20;;;12.50;99.90;;;;;;5020995;28;20767;-84
2022/05/26 03:45:30;;;;;;;2.40;1.20;;;12.50;99.90;;;;;;5028060;28;20924;-84
2022/05/26 03:47:58;;;;;;;2.10;1.25;;;12.50;99.90;;;;;;5031760;28;20385;-82
2022/05/26 03:50:25;;;;;;;1.90;1.20;;;12.50;99.90;;;;;;5033512;28;20436;-83
2022/05/26 03:52:53;;;;;;;1.98;1.40;;;12.50;99.90;;;;;;5032788;28;20404;-83
2022/05/26 03:55:22;;;;;;;2.10;1.50;;;12.40;99.90;;;;;;5034431;28;20416;-83
2022/05/26 03:57:49;;;;;;;2.50;1.30;;;12.40;99.90;;;;;;5020886;28;20400;-84
2022/05/26 04:00:21;;;;;;;2.13;1.30;;;12.40;99.90;;;;;;5029928;28;20411;-83
2022/05/26 04:02:49;;;;;;;2.10;1.40;;;12.40;99.90;;;;;;5023397;28;20747;-83
2022/05/26 04:05:18;;;;;;;1.35;1.10;;;12.20;99.90;;;;;;5029835;28;20408;-84
2022/05/26 04:07:45;;;;;;;1.90;1.10;;;12.20;99.90;;;;;;5022719;28;20810;-83
2022/05/26 04:10:14;;;;;;;2.72;1.10;;;12.30;99.90;;;;;;5028344;28;20413;-84
2022/05/26 04:12:42;;;;;;;3.67;1.15;;;12.20;99.90;;;;;;5029116;28;20401;-83
2022/05/26 04:15:12;;;;;;;1.40;1.00;;;12.30;99.90;;;;;;5030404;28;20422;-84
2022/05/26 04:17:40;;;;;;;2.13;1.00;;;12.30;99.90;;;;;;5061314;28;20927;-83
2022/05/26 04:20:11;;;;;;;2.90;1.00;;;12.00;99.90;;;;;;5023620;28;20759;-82
2022/05/26 04:22:39;;;;;;;2.95;1.10;;;12.00;99.90;;;;;;5022370;28;20763;-84
2022/05/26 04:49:38;;;;;;;3.00;1.60;;;11.60;99.90;;;;;;5031193;28;20356;-84
2022/05/26 04:52:07;;;;;;;3.75;1.88;;;11.70;99.90;;;;;;5023471;28;20827;-83
2022/05/26 04:54:36;;;;;;;3.95;1.83;;;11.70;99.90;;;;;;5027699;28;20407;-85
2022/05/26 04:57:06;;;;;;;3.70;2.20;;;11.70;99.90;;;;;;5032336;28;20500;-85
2022/05/26 04:59:34;;;;;;;4.35;2.30;;;11.60;99.90;;;;;;5032004;28;20402;-83
2022/05/26 05:02:04;;;;;;;3.70;2.20;;;11.40;99.90;;;;;;5032366;28;20402;-85
2022/05/26 05:04:32;;;;;;;3.72;2.55;;;11.40;99.90;;;;;;5030625;28;20481;-84
2022/05/26 05:07:00;;;;;;;5.15;2.80;;;11.50;99.90;;;;;;5026177;27;20417;-83
2022/05/26 05:09:27;;;;;;;5.85;3.10;;;11.40;99.90;;;;;;5035321;28;20755;-83
2022/05/26 05:11:56;;;;;;;5.23;3.20;;;11.10;99.90;;;;;;5032359;28;20480;-86
2022/05/26 05:14:24;;;;;;;6.80;4.10;;;11.20;99.90;;;;;;5029106;28;20970;-85
2022/05/26 05:16:51;;;;;;;6.43;3.70;;;11.00;99.90;;;;;;5035104;28;20940;-83
2022/05/26 05:19:19;;;;;;;7.18;4.20;;;11.20;99.90;;;;;;5032121;28;20502;-85
2022/05/26 05:21:59;;;;;;;7.13;4.13;;;11.20;99.90;;;;;;5028595;28;20407;-82
2022/05/26 05:24:49;;;;;;;6.10;3.65;;;11.40;99.90;;;;;;5027062;28;20406;-81
2022/05/26 05:27:21;;;;;;;7.63;4.07;;;11.10;99.90;;;;;;5035302;28;20409;-83
2022/05/26 05:29:50;;;;;;;6.28;3.50;;;11.00;99.90;;;;;;5036210;28;20493;-85
2022/05/26 05:32:26;;;;;;;4.73;3.77;;;11.10;99.90;;;;;;5031717;28;20407;-84
2022/05/26 05:35:06;;;;;;;7.47;5.30;;;11.20;99.90;;;;;;5027977;27;20398;-83
2022/05/26 05:37:34;;;;;;;6.55;4.50;;;11.20;99.90;;;;;;5024952;28;20411;-83
2022/05/26 05:40:03;;;;;;;6.37;3.70;;;11.40;99.90;;;;;;5027450;28;20786;-83
2022/05/26 05:42:31;;;;;;;6.47;4.35;;;11.50;99.90;;;;;;5034588;28;20393;-85
2022/05/26 05:44:59;;;;;;;6.28;3.65;;;11.30;99.90;;;;;;5031026;28;20385;-85
2022/05/26 05:47:26;;;;;;;6.72;3.90;;;11.30;99.90;;;;;;5029799;28;20900;-85
2022/05/26 05:49:54;;;;;;;5.67;4.07;;;11.20;99.90;;;;;;5023440;28;20399;-85
2022/05/26 05:52:23;;;;;;;5.83;3.73;;;11.40;99.90;;;;;;5019507;28;20410;-86
2022/05/26 05:54:51;;;;;;;7.37;3.83;;;11.40;99.90;;;;;;5013518;28;20457;-85
2022/05/26 05:57:19;;;;;;;8.10;4.07;;;11.50;99.90;;;;;;5019448;28;20776;-85
2022/05/26 05:59:46;;;;;;;7.22;4.15;;;11.50;99.90;;;;;;5016284;28;20395;-85
2022/05/26 06:02:15;;;;;;;6.95;4.13;;;11.50;99.90;;;;;;5022338;28;20397;-86
2022/05/26 06:05:02;;;;;;;5.53;3.87;;;11.40;99.90;;;;;;5020222;28;20407;-86
2022/05/26 06:07:30;;;;;;;5.53;3.80;;;11.50;99.90;;;;;;5021227;28;20410;-85
2022/05/26 06:09:58;;;;;;;7.25;3.83;;;11.60;99.90;;;;;;5003417;28;20402;-84
2022/05/26 06:12:26;;;;;;;6.70;3.90;;;11.50;99.90;;;;;;5018844;28;20485;-85
2022/05/26 06:14:55;;;;;;;6.03;4.40;;;11.50;99.90;;;;;;5015477;28;20419;-86
2022/05/26 06:17:22;;;;;;;8.00;4.00;;;11.50;99.90;;;;;;5017569;28;20447;-85
2022/05/26 06:19:51;;;;;;;7.68;4.18;;;11.50;99.90;;;;;;5018427;28;20738;-85
2022/05/26 06:22:21;;;;;;;7.30;3.72;;;11.50;99.90;;;;;;5020380;28;20494;-84
2022/05/26 06:24:49;;;;;;;7.55;3.88;;;11.20;99.90;;;;;;5014045;28;20407;-83
2022/05/26 06:30:11;;;;;;;8.23;4.10;;;11.20;99.90;;;;;;5017426;28;20461;-85
2022/05/26 06:38:25;;;;;;;8.10;4.38;;;11.50;99.90;;;;;;5013596;28;20888;-85
2022/05/26 06:40:53;;;;;;;8.82;4.07;;;11.40;99.90;;;;;;5019384;28;20465;-85
2022/05/26 06:43:21;;;;;;;6.15;3.90;;;11.30;99.90;;;;;;5017683;28;20452;-84
2022/05/26 06:45:52;;;;;;;7.53;3.60;;;11.40;99.90;;;;;;5020767;28;20399;-85
2022/05/26 06:48:20;;;;;;;8.38;3.97;;;11.50;99.90;;;;;;5018808;28;20413;-84
2022/05/26 06:50:47;;;;;;;5.35;3.70;;;11.50;99.90;;;;;;5017233;28;20504;-85
2022/05/26 06:53:15;;;;;;;6.30;3.55;;;11.50;99.90;;;;;;5015408;28;20869;-84
2022/05/26 06:55:42;;;;;;;6.22;3.58;;;11.60;99.90;;;;;;5013927;28;20414;-84
2022/05/26 06:58:10;;;;;;;5.73;3.50;;;11.40;99.90;;;;;;5020364;28;20464;-85
2022/05/26 07:00:38;;;;;;;4.97;3.50;;;11.40;99.90;;;;;;5020401;28;20400;-84
2022/05/26 07:03:07;;;;;;;6.30;3.30;;;11.40;99.90;;;;;;5017579;28;20415;-85
2022/05/26 07:05:37;;;;;;;7.43;3.42;;;11.60;99.90;;;;;;5021247;28;20481;-85
2022/05/26 07:08:04;;;;;;;6.70;3.40;;;11.50;99.90;;;;;;5013441;28;20410;-85
2022/05/26 07:10:34;;;;;;;6.20;3.38;;;11.40;99.90;;;;;;5015270;28;20497;-85
2022/05/26 07:13:02;;;;;;;6.38;3.28;;;11.40;99.90;;;;;;5020016;28;20442;-84
2022/05/26 07:15:30;;;;;;;5.60;3.10;;;11.30;99.90;;;;;;5018934;28;20803;-85
2022/05/26 07:17:58;;;;;;;5.90;3.08;;;11.30;99.90;;;;;;5019777;28;20427;-84
2022/05/26 07:20:25;;;;;;;6.13;2.90;;;11.30;99.90;;;;;;5014450;28;20407;-85
2022/05/26 07:22:53;;;;;;;6.15;3.10;;;11.40;99.90;;;;;;5019962;28;20468;-84
2022/05/26 07:25:21;;;;;;;6.05;3.15;;;11.40;99.90;;;;;;5016699;28;20399;-86
2022/05/26 07:27:48;;;;;;;6.00;3.33;;;11.40;99.90;;;;;;5016602;28;20798;-85
2022/05/26 07:30:16;;;;;;;7.15;3.33;;;11.30;99.90;;;;;;5015667;28;20403;-84
2022/05/26 07:32:44;;;;;;;7.22;3.40;;;11.30;99.90;;;;;;5023693;28;20502;-87
2022/05/26 07:35:12;;;;;;;6.05;3.50;;;11.40;99.90;;;;;;5016741;28;20435;-86
2022/05/26 07:43:18;;;;;;;9.27;3.75;;;11.40;99.90;;;;;;5017284;28;20402;-86
2022/05/26 07:45:46;;;;;;;8.07;3.83;;;11.40;99.90;;;;;;5020248;28;20502;-82
2022/05/26 07:48:13;;;;;;;7.93;3.90;;;11.30;99.90;;;;;;5018793;28;20400;-84
2022/05/26 07:50:41;;;;;;;9.07;4.28;;;11.40;99.90;;;;;;5049565;28;20771;-82
2022/05/26 07:53:09;;;;;;;6.53;3.92;;;11.50;99.90;;;;;;5022320;28;20443;-85
2022/05/26 07:55:38;;;;;;;8.00;3.80;;;11.60;99.90;;;;;;5014632;28;20486;-85
2022/05/26 07:58:07;;;;;;;6.43;3.50;;;11.70;99.90;;;;;;5008961;28;20411;-85
2022/05/26 08:00:35;;;;;;;7.80;3.73;;;11.60;99.90;;;;;;5016304;28;20401;-85
2022/05/26 08:03:02;;;;;;;6.05;3.55;;;11.60;99.90;;;;;;5017231;28;20407;-86
2022/05/26 08:05:30;;;;;;;7.43;3.83;;;11.70;99.90;;;;;;5019829;28;20459;-85
2022/05/26 08:07:58;;;;;;;7.97;3.60;;;11.60;99.90;;;;;;5012164;28;20395;-85
2022/05/26 08:10:27;;;;;;;7.55;3.78;;;11.70;99.90;;;;;;5013973;28;20414;-85
2022/05/26 08:12:54;;;;;;;8.45;3.33;;;11.80;99.90;;;;;;5018734;28;20427;-85
2022/05/26 08:15:27;;;;;;;7.88;4.53;;;11.70;99.90;;;;;;5018998;28;20446;-85
2022/05/26 08:17:54;;;;;;;6.00;3.63;;;11.60;99.90;;;;;;5017107;28;20418;-85
2022/05/26 08:20:23;;;;;;;7.35;3.70;;;11.60;99.90;;;;;;5021626;28;20408;-84
2022/05/26 08:22:50;;;;;;;6.90;3.70;;;11.60;99.90;;;;;;5016060;28;20405;-86
2022/05/26 08:25:18;;;;;;;7.35;3.60;;;11.60;99.90;;;;;;5016270;28;20405;-84
2022/05/26 08:27:46;;;;;;;7.03;4.00;;;11.70;99.90;;;;;;5020256;28;20389;-86
2022/05/26 08:30:14;;;;;;;7.47;3.60;;;11.80;99.90;;;;;;5014731;28;20467;-83
2022/05/26 08:32:43;;;;;;;5.67;3.77;;;11.70;99.90;;;;;;5007721;28;20432;-84
2022/05/26 08:35:12;;;;;;;7.45;3.80;;;11.50;99.90;;;;;;5016113;28;20902;-85
2022/05/26 08:37:40;;;;;;;6.15;3.85;;;11.50;99.90;;;;;;5014889;28;20413;-83
2022/05/26 08:40:08;;;;;;;7.15;3.80;;;11.60;99.90;;;;;;5008893;28;20422;-86
2022/05/26 08:42:37;;;;;;;7.93;3.85;;;11.60;99.90;;;;;;5008573;28;20829;-85
2022/05/26 08:45:12;;;;;;;6.05;3.75;;;11.70;99.90;;;;;;5023193;28;20388;-85
2022/05/26 08:47:48;;;;;;;9.82;4.43;;;11.80;99.90;;;;;;5016113;28;20435;-86
2022/05/26 08:50:24;;;;;;;6.55;3.80;;;11.80;99.90;;;;;;5016057;28;20403;-85
2022/05/26 08:53:11;;;;;;;7.70;4.05;;;11.80;99.90;;;;;;5014998;28;20407;-86
2022/05/26 08:55:47;;;;;;;6.63;3.80;;;11.70;99.90;;;;;;5011694;28;20815;-86
2022/05/26 08:58:22;;;;;;;6.65;4.47;;;11.70;99.90;;;;;;5041066;28;20978;-86
2022/05/26 09:00:52;;;;;;;7.15;4.43;;;11.60;99.90;;;;;;5017519;28;20390;-82
2022/05/26 09:03:31;;;;;;;6.30;3.90;;;11.60;99.90;;;;;;5021472;28;20458;-85
2022/05/26 09:06:16;;;;;;;6.82;3.75;;;11.90;99.90;;;;;;5016890;28;20493;-86
2022/05/26 09:14:41;;;;;;;7.18;3.80;;;12.10;99.90;;;;;;5018129;28;20410;-84
2022/05/26 09:17:14;;;;;;;5.95;3.35;;;12.10;99.90;;;;;;5014579;28;20442;-85
2022/05/26 09:19:44;;;;;;;7.65;3.80;;;12.10;99.90;;;;;;5016911;28;20407;-85
2022/05/26 09:22:38;;;;;;;6.60;3.40;;;12.30;99.90;;;;;;5017871;28;20465;-86
2022/05/26 09:25:11;;;;;;;4.85;3.17;;;12.40;99.90;;;;;;5009923;28;20482;-85
2022/05/26 09:27:49;;;;;;;5.95;3.28;;;12.40;99.90;;;;;;5015780;28;20407;-84
2022/05/26 09:30:23;;;;;;;6.77;2.90;;;12.30;99.90;;;;;;5019534;28;20403;-85
2022/05/26 09:32:52;;;;;;;5.18;2.65;;;12.60;99.90;;;;;;5020665;28;20460;-85
2022/05/26 09:35:19;;;;;;;6.15;3.10;;;12.70;99.90;;;;;;5022075;28;20409;-84
2022/05/26 09:37:50;;;;;;;6.95;3.13;;;12.80;99.90;;;;;;5013212;28;20490;-84
2022/05/26 09:40:28;;;;;;;6.53;3.10;;;12.80;99.90;;;;;;5017171;28;20418;-84
2022/05/26 09:43:05;;;;;;;4.88;2.67;;;12.70;99.90;;;;;;5014920;28;20441;-85
2022/05/26 09:45:57;;;;;;;7.32;3.10;;;12.80;99.90;;;;;;5022327;28;20404;-86
2022/05/26 09:48:30;;;;;;;6.53;2.77;;;12.80;99.90;;;;;;5020477;28;20411;-86
2022/05/26 09:51:24;;;;;;;5.70;2.80;;;12.80;99.90;;;;;;5021077;28;20806;-86
2022/05/26 09:53:54;;;;;;;5.72;2.92;;;12.80;99.90;;;;;;5027004;28;20397;-85
2022/05/26 09:56:38;;;;;;;4.87;2.87;;;12.90;99.90;;;;;;5017529;28;20393;-84
2022/05/26 09:59:28;;;;;;;6.30;2.90;;;12.90;99.90;;;;;;5010829;28;20490;-85
2022/05/26 10:02:05;;;;;;;8.25;2.65;;;12.90;99.90;;;;;;5018724;28;20426;-83
2022/05/26 10:04:41;;;;;;;5.40;2.80;;;13.10;99.90;;;;;;5015927;28;20407;-86
2022/05/26 10:07:21;;;;;;;5.32;2.60;;;13.20;99.90;;;;;;5018309;28;20482;-85
2022/05/26 10:10:46;;;;;;;4.20;2.63;;;13.20;99.90;;;;;;5015487;28;20473;-84
2022/05/26 10:13:38;;;;;;;6.33;2.53;;;13.10;99.90;;;;;;5057513;28;21015;-85
2022/05/26 10:16:17;;;;;;;4.93;2.75;;;13.30;99.90;;;;;;5057235;28;20446;-84
2022/05/26 10:19:08;;;;;;;4.43;2.47;;;13.50;99.90;;;;;;5029358;28;20415;-85
2022/05/26 10:22:11;;;;;;;5.03;2.80;;;13.40;99.90;;;;;;5034502;28;20411;-84
2022/05/26 10:25:00;;;;;;;6.65;3.08;;;13.30;99.90;;;;;;5021694;28;20390;-85
2022/05/26 10:27:33;;;;;;;6.33;2.87;;;13.30;99.90;;;;;;5015450;28;20383;-86
2022/05/26 10:30:20;;;;;;;5.25;2.60;;;13.30;99.90;;;;;;5016593;28;20414;-85
2022/05/26 10:33:12;;;;;;;7.60;3.25;;;13.40;99.90;;;;;;5020804;28;20492;-84
2022/05/26 10:35:49;;;;;;;6.03;3.50;;;13.60;99.90;;;;;;5016457;28;20758;-84
2022/05/26 10:38:27;;;;;;;8.23;3.08;;;13.60;99.90;;;;;;5022572;28;20985;-85
2022/05/26 10:41:33;;;;;;;7.57;2.95;;;13.80;99.90;;;;;;5022202;28;20445;-86
2022/05/26 10:44:14;;;;;;;5.07;2.67;;;13.90;99.90;;;;;;5010777;28;20391;-85
2022/05/26 10:46:49;;;;;;;6.35;3.00;;;13.70;99.90;;;;;;5042026;28;20490;-83
2022/05/26 10:49:37;;;;;;;7.45;3.03;;;13.60;99.90;;;;;;5018388;28;20418;-85
2022/05/26 10:52:18;;;;;;;7.28;2.60;;;13.60;99.90;;;;;;5052153;28;20397;-86
2022/05/26 10:55:25;;;;;;;6.15;3.20;;;13.70;99.90;;;;;;5021677;28;20494;-84
2022/05/26 10:58:21;;;;;;;7.15;3.10;;;13.70;99.90;;;;;;5019128;28;20430;-85
2022/05/26 11:00:58;;;;;;;7.60;2.90;;;13.70;99.90;;;;;;5021491;28;20944;-85
2022/05/26 11:03:55;;;;;;;2.88;2.25;;;13.90;99.90;;;;;;5019707;28;20499;-84
2022/05/26 11:06:30;;;;;;;5.75;2.50;;;14.30;99.90;;;;;;5016711;28;20855;-86
2022/05/26 11:09:21;;;;;;;5.10;2.88;;;14.40;99.90;;;;;;5030689;28;20404;-85
2022/05/26 11:11:52;;;;;;;6.25;2.60;;;14.40;99.90;;;;;;5025408;28;20399;-84
2022/05/26 11:17:30;;;;;;;4.60;2.10;;;14.40;99.90;;;;;;5020790;28;20396;-85
2022/05/26 11:20:25;;;;;;;4.83;2.20;;;14.50;99.90;;;;;;5018557;28;20484;-83
2022/05/26 11:22:53;;;;;;;4.03;2.13;;;14.70;99.90;;;;;;5018422;28;20403;-85
2022/05/26 11:25:27;;;;;;;2.77;1.73;;;14.70;99.90;;;;;;5017704;28;20407;-86
2022/05/26 11:27:58;;;;;;;3.40;2.00;;;15.00;99.90;;;;;;5045232;28;20401;-85
2022/05/26 11:36:58;;;;;;;3.03;1.60;;;14.50;99.90;;;;;;5029202;28;20473;-85
2022/05/26 11:39:33;;;;;;;5.25;2.00;;;14.40;99.90;;;;;;5017811;28;20407;-86
2022/05/26 11:42:06;;;;;;;3.00;1.70;;;14.30;99.90;;;;;;5021942;28;20444;-85
2022/05/26 11:44:38;;;;;;;4.25;2.00;;;14.50;99.90;;;;;;5010734;28;20479;-83
2022/05/26 11:47:24;;;;;;;3.38;1.85;;;14.70;99.90;;;;;;5019325;28;20954;-85
2022/05/26 11:49:53;;;;;;;4.13;2.10;;;14.60;99.90;;;;;;5047821;28;20412;-84
2022/05/26 11:52:27;;;;;;;3.07;1.77;;;14.50;99.90;;;;;;5018893;28;20397;-85
2022/05/26 11:55:03;;;;;;;3.72;1.60;;;14.40;99.90;;;;;;5013461;28;20454;-85
2022/05/26 11:57:52;;;;;;;6.32;2.10;;;14.30;99.90;;;;;;5022015;28;20889;-86
2022/05/26 12:00:40;;;;;;;5.15;2.20;;;14.30;99.90;;;;;;5017357;28;20954;-84
2022/05/26 12:03:27;;;;;;;5.93;1.97;;;14.20;99.90;;;;;;5021018;28;20387;-85
2022/05/26 12:06:04;;;;;;;4.32;1.88;;;14.10;99.90;;;;;;5009538;28;20387;-84
2022/05/26 12:08:53;;;;;;;4.32;1.73;;;13.90;99.90;;;;;;5014466;28;20449;-84
2022/05/26 12:11:53;;;;;;;3.92;1.40;;;13.60;99.90;;;;;;5017845;28;20435;-83
2022/05/26 12:14:34;;;;;;;2.33;1.30;;;13.10;99.90;;;;;;5018833;28;20486;-84
2022/05/26 12:17:30;;;;;;;2.67;1.40;;;13.00;99.90;;;;;;5014323;28;20403;-84
2022/05/26 12:20:10;;;;;;;2.67;1.40;;;12.90;99.90;;;;;;5013356;28;20500;-80
2022/05/26 12:22:47;;;;;;;1.83;1.17;;;12.80;99.90;;;;;;5013419;28;20746;-83
2022/05/26 12:25:22;;;;;;;2.60;1.20;;;12.80;99.90;;;;;;5011997;28;20494;-83
2022/05/26 12:27:56;;;;;;;1.90;1.10;;;12.90;99.90;;;;;;5017099;28;20407;-84
2022/05/26 12:30:46;;;;;;;1.65;1.10;;;12.90;99.90;;;;;;5017389;28;20429;-83
2022/05/26 12:33:20;;;;;;;3.25;1.30;;;12.70;99.90;;;;;;5022432;28;20401;-85
2022/05/26 12:36:01;;;;;;;2.80;1.23;;;12.80;99.90;;;;;;5020995;28;20885;-86
2022/05/26 12:38:35;;;;;;;2.45;1.10;;;13.10;99.90;;;;;;5019771;28;20401;-85
2022/05/26 12:41:10;;;;;;;2.67;0.93;;;13.20;99.90;;;;;;5031033;28;20513;-85
2022/05/26 12:44:13;;;;;;;2.17;1.00;;;13.20;99.90;;;;;;5014182;28;20475;-85
2022/05/26 12:46:46;;;;;;;1.85;0.90;;;13.20;99.90;;;;;;5049441;28;20402;-84
2022/05/26 12:49:32;;;;;;;1.38;0.80;;;13.30;99.90;;;;;;5017984;28;20413;-84
2022/05/26 12:52:19;;;;;;;1.45;0.90;;;13.30;99.90;;;;;;5018061;28;20417;-85
2022/05/26 12:55:06;;;;;;;1.33;0.80;;;13.40;99.90;;;;;;5020763;28;20407;-86
2022/05/26 12:57:36;;;;;;;1.70;0.90;;;13.40;99.90;;;;;;5019169;28;20685;-85
2022/05/26 13:00:22;;;;;;;1.67;0.80;;;13.60;99.90;;;;;;5016423;28;20515;-84
2022/05/26 13:02:57;;;;;;;1.10;0.80;;;13.70;99.90;;;;;;5020306;28;20395;-84
2022/05/26 13:05:27;;;;;;;1.65;0.70;;;13.90;99.90;;;;;;5023334;27;20405;-85
2022/05/26 13:07:57;;;;;;;2.17;0.90;;;14.10;99.90;;;;;;5022085;28;20401;-85
2022/05/26 13:10:35;;;;;;;3.37;0.80;;;14.00;99.90;;;;;;5021977;28;20398;-84
2022/05/26 13:13:26;;;;;;;2.50;0.80;;;13.90;99.90;;;;;;5037766;28;20496;-85
2022/05/26 13:16:24;;;;;;;121.45;28.25;;;13.80;99.90;;;;;;5016675;28;20460;-85
2022/05/26 13:18:54;;;;;;;3.10;0.90;;;13.80;99.90;;;;;;5025863;28;20429;-85
2022/05/26 13:21:29;;;;;;;1.48;0.80;;;13.80;99.90;;;;;;5018703;28;20403;-85
2022/05/26 13:23:57;;;;;;;1.58;0.70;;;13.60;99.90;;;;;;5019392;28;20412;-85
2022/05/26 13:26:24;;;;;;;2.25;0.80;;;13.60;99.90;;;;;;5021548;28;20406;-85
2022/05/26 13:28:59;;;;;;;1.97;0.77;;;13.50;99.90;;;;;;5015831;28;20406;-83
2022/05/26 13:34:14;;;;;;;1.87;0.80;;;13.60;99.90;;;;;;5018482;28;20441;-84
2022/05/26 13:36:47;;;;;;;1.40;0.80;;;13.60;99.90;;;;;;5023204;28;20386;-85
2022/05/26 13:39:22;;;;;;;2.90;1.10;;;13.50;99.90;;;;;;5031296;28;20426;-85
2022/05/26 13:41:52;;;;;;;2.42;0.95;;;13.50;99.90;;;;;;5017221;28;20451;-84
2022/05/26 13:44:35;;;;;;;2.70;0.90;;;13.50;99.90;;;;;;5025662;28;20488;-85
2022/05/26 13:47:07;;;;;;;2.95;0.80;;;13.50;99.90;;;;;;5017368;28;20415;-85
2022/05/26 13:49:55;;;;;;;2.22;0.98;;;13.30;99.90;;;;;;5020637;28;20439;-83
2022/05/26 13:52:25;;;;;;;2.38;0.90;;;13.30;99.90;;;;;;5023912;28;20402;-84
2022/05/26 13:55:00;;;;;;;2.10;0.90;;;13.40;99.90;;;;;;5021487;28;20439;-84
2022/05/26 13:57:48;;;;;;;1.80;0.90;;;13.50;99.90;;;;;;5021648;28;20987;-84
2022/05/26 14:00:31;;;;;;;1.70;0.80;;;13.50;99.90;;;;;;5017688;28;20422;-83
2022/05/26 14:03:02;;;;;;;1.80;1.00;;;13.60;99.90;;;;;;5034877;28;20450;-84
2022/05/26 14:05:33;;;;;;;2.58;1.10;;;13.60;99.90;;;;;;5021648;28;20401;-83
2022/05/26 14:08:09;;;;;;;2.70;1.10;;;13.60;99.90;;;;;;5013626;28;20387;-84
2022/05/26 14:10:43;;;;;;;3.03;1.20;;;13.60;99.90;;;;;;5016151;28;20435;-83
2022/05/26 14:13:20;;;;;;;2.72;1.25;;;13.60;99.90;;;;;;5019922;28;20409;-85
2022/05/26 14:15:52;;;;;;;4.57;1.17;;;13.60;99.90;;;;;;5010679;28;20403;-84
2022/05/26 14:18:20;;;;;;;3.45;1.30;;;13.50;99.90;;;;;;5015308;28;20415;-84
2022/05/26 14:21:14;;;;;;;1.80;1.10;;;13.50;99.90;;;;;;5018881;28;20401;-84
2022/05/26 14:23:46;;;;;;;2.63;1.17;;;13.40;99.90;;;;;;5019259;28;20930;-84
2022/05/26 14:26:36;;;;;;;4.25;1.23;;;13.50;99.90;;;;;;5018113;28;20406;-83
2022/05/26 14:29:28;;;;;;;3.50;1.15;;;13.40;99.90;;;;;;5014551;28;20479;-83
2022/05/26 14:31:59;;;;;;;3.35;1.48;;;13.30;99.90;;;;;;5020674;28;20406;-84
2022/05/26 14:34:38;;;;;;;2.67;1.15;;;13.30;99.90;;;;;;5012414;28;20402;-83
2022/05/26 14:37:08;;;;;;;2.78;1.35;;;13.40;99.90;;;;;;5034901;28;20765;-85
2022/05/26 14:39:37;;;;;;;3.15;1.13;;;13.30;99.90;;;;;;5020846;28;20406;-83
2022/05/26 14:42:07;;;;;;;2.53;1.20;;;13.40;99.90;;;;;;5015610;28;20750;-84
2022/05/26 14:44:34;;;;;;;2.65;1.20;;;13.40;99.90;;;;;;5018921;28;20467;-84
2022/05/26 14:47:03;;;;;;;3.10;1.20;;;13.20;99.90;;;;;;5015080;28;20427;-84
2022/05/26 14:49:31;;;;;;;5.18;1.30;;;13.10;99.90;;;;;;5027525;28;20439;-84
2022/05/26 14:51:59;;;;;;;1.70;1.10;;;13.10;99.90;;;;;;5019949;28;20458;-84
2022/05/26 14:57:19;;;;;;;5.00;1.48;;;13.10;99.90;;;;;;5016982;28;20873;-84
2022/05/26 14:59:50;;;;;;;2.15;1.38;;;12.90;99.90;;;;;;5016061;28;20443;-83
2022/05/26 15:02:19;;;;;;;2.30;1.30;;;12.70;99.90;;;;;;5021100;28;20921;-85
2022/05/26 15:04:47;;;;;;;2.75;1.20;;;12.60;99.90;;;;;;5019068;28;20438;-83
2022/05/26 15:07:18;;;;;;;2.15;1.30;;;12.40;99.90;;;;;;5015639;28;20876;-83
2022/05/26 15:09:48;;;;;;;2.30;1.50;;;12.20;99.90;;;;;;5021355;28;20396;-83
2022/05/26 15:12:16;;;;;;;3.30;1.42;;;12.10;99.90;;;;;;5028331;28;20386;-84
2022/05/26 15:14:44;;;;;;;5.18;1.70;;;12.20;99.90;;;;;;5023440;28;20420;-84
2022/05/26 15:17:16;;;;;;;5.00;1.52;;;12.30;99.90;;;;;;5018804;28;20761;-83
2022/05/26 15:19:53;;;;;;;2.70;1.50;;;12.40;99.90;;;;;;5013264;28;20460;-84
2022/05/26 15:22:24;;;;;;;3.20;1.40;;;12.50;99.90;;;;;;5017578;28;20407;-83
2022/05/26 15:24:52;;;;;;;3.78;1.48;;;12.40;99.90;;;;;;5012761;28;20431;-83
2022/05/26 15:27:25;;;;;;;2.60;1.10;;;12.50;99.90;;;;;;5019765;28;20397;-83